IST,Max TemperatureF,Mean TemperatureF,Min TemperatureF,Max Dew PointF,MeanDew PointF,Min DewpointF,Max Humidity, Mean Humidity, Min Humidity, Max Sea Level PressureIn, Mean Sea Level PressureIn, Min Sea Level PressureIn, Max VisibilityMiles, Mean VisibilityMiles, Min VisibilityMiles, Max Wind SpeedMPH, Mean Wind SpeedMPH, Max Gust SpeedMPH,PrecipitationIn, CloudCover, Events, WindDirDegrees
2013-10-1,84,76,69,66,64,62,78,63,43,29.86,29.81,29.77,6,6,5,14,5,,0.00,2,,317
2013-10-2,85,75,65,65,60,52,83,55,31,29.83,29.78,29.74,6,6,6,12,5,,0.00,2,,200
2013-10-3,86,79,72,66,59,45,69,52,26,29.98,29.89,29.83,6,6,6,17,6,,0.00,3,,259
2013-10-4,82,76,70,61,58,52,73,54,29,29.99,29.96,29.92,6,6,6,20,7,,0.00,3,,249
2013-10-5,79,73,67,55,52,48,60,48,34,29.98,29.95,29.92,6,6,6,14,7,,0.00,3,,278
2013-10-6,78,72,66,52,49,44,60,45,27,30.07,29.99,29.92,6,6,6,21,7,20,0.00,2,Rain,325
2013-10-7,79,70,60,46,44,39,55,40,23,30.15,30.09,30.06,6,6,6,21,7,,0.00,1,,357
2013-10-8,87,72,57,48,35,23,55,30,5,30.13,30.07,30.01,6,6,6,17,7,,0.00,,,37
2013-10-9,90,78,67,36,25,21,28,14,4,30.05,30.00,29.95,6,6,6,18,9,,0.00,,,63
2013-10-10,89,74,60,55,41,27,50,31,9,30.04,30.00,29.98,6,6,6,13,4,,0.00,,,295
2013-10-11,84,74,63,63,56,46,73,54,31,30.09,30.06,30.04,6,6,6,13,5,,0.00,1,,336
2013-10-12,82,72,62,61,58,54,78,61,32,30.07,30.01,29.95,6,6,6,12,4,,0.00,1,,298
2013-10-13,82,74,65,66,62,55,78,66,47,29.95,29.89,29.83,6,6,6,12,6,,0.00,2,,207
2013-10-14,83,75,67,66,62,59,78,66,42,30.01,29.91,29.86,6,6,6,13,5,,0.00,3,,266
2013-10-15,84,74,65,63,57,48,78,58,30,30.04,30.00,29.98,6,6,6,16,5,,0.00,1,,342
2013-10-16,82,72,62,64,59,54,73,63,44,30.01,29.95,29.89,6,6,6,15,4,,0.00,1,,330
2013-10-17,82,72,62,64,60,57,82,63,43,29.92,29.85,29.80,6,6,6,13,4,,0.00,1,,280
2013-10-18,81,73,65,68,56,39,83,54,24,29.98,29.87,29.77,6,6,1,17,8,,0.12,3,Rain,246
2013-10-19,78,70,63,61,58,55,78,63,42,30.13,30.06,29.98,6,6,6,15,5,,0.00,3,Rain,265
2013-10-20,81,70,60,55,51,46,77,51,25,30.18,30.12,30.09,6,6,6,21,6,,0.00,1,,8
2013-10-21,88,76,63,50,38,32,59,28,8,30.09,30.03,29.98,6,6,4,23,9,,0.00,0,,60
2013-10-22,89,75,61,57,45,36,60,37,14,29.99,29.95,29.92,6,6,6,14,4,,0.00,,,286
2013-10-23,82,72,61,63,55,46,73,56,30,30.01,29.97,29.95,6,6,6,14,4,,0.00,,,333
2013-10-24,80,70,60,61,56,50,73,60,33,30.01,29.98,29.95,6,6,6,13,4,,0.00,1,,329
2013-10-25,79,69,59,56,54,50,77,57,36,30.02,29.98,29.95,6,6,6,13,5,,0.00,1,,352
2013-10-26,81,70,59,61,54,43,78,58,26,30.01,29.98,29.92,6,6,6,16,4,,0.00,2,,339
2013-10-27,79,70,60,61,57,54,82,63,41,30.01,29.99,29.95,6,6,6,12,4,,0.00,1,,300
2013-10-28,78,68,58,57,54,46,82,59,30,30.04,29.99,29.95,6,6,6,13,5,,0.00,,,334
2013-10-29,91,72,53,61,46,32,68,45,6,29.93,29.87,29.80,6,6,6,14,4,,0.00,,,159
2013-10-30,82,74,66,61,53,45,73,49,32,29.93,29.88,29.83,6,6,5,15,5,,0.02,1,Rain-Thunderstorm,11
2013-10-31,85,76,66,59,49,41,60,40,20,29.96,29.92,29.89,6,6,6,21,7,,0.00,2,,39